Pittsburg, KS

5:47 PM CDT on April 25, 2017 (GMT -0500)
Atkinson Municipal

Weather History for KPTS - January, 2012

Change the Weather History Date:

Monday, January 9, 2012

  Actual Average (KJLN) Record (KJLN)
Temperature  
Mean Temperature 38 °F -  
Max Temperature 50 °F 37 °F 67 °F (1963)
Min Temperature 25 °F 21 °F -3 °F (1977)
Degree Days  
Heating Degree Days 28    
Moisture  
Dew Point 31 °F    
Average Humidity 78    
Maximum Humidity 100    
Minimum Humidity 43    
Precipitation  
Precipitation 0.00 in - - ()
Sea Level Pressure  
Sea Level Pressure 30.22 in    
Wind  
Wind Speed 3 mph (NNE)    
Max Wind Speed 7 mph    
Max Gust Speed -    
Visibility 9 miles    
Events      
Averages and records for this station are not official NWS values.
T = Trace of Precipitation, MM = Missing Value Source: NWS Daily Summary

Daily Weather History Graph

Daily Weather History Graph

Search for Another Location

Airport or City:

Trip Planner

Search our weather history database for the weather conditions in past years. The results will help you decide how hot, cold, wet, or windy it might be!

Date:

Astronomy

Jan. 09, 2012 Rise Set
Actual Time 7:33 AM CST 5:18 PM CST
Civil Twilight 7:04 AM CST 5:47 PM CST
Nautical Twilight 6:32 AM CST 6:19 PM CST
Astronomical Twilight 6:00 AM CST 6:51 PM CST
Moon 6:04 PM CST (1/9) 7:35 AM CST (1/9)
Length of Visible Light 10h 42m
Length of Day
9h 44m
Full, 100% of the Moon is Illuminated
Jan 9
Full
Jan 16
Last Quarter
Jan 23
New
Jan 30
First Quarter
Feb 7
Full

Hourly Weather History & Observations

Time (CST) Temp. Windchill Dew Point Humidity Pressure Visibility Wind Dir Wind Speed Gust Speed Precip Events Conditions
12:15 AM 33.8 °F 29.6 °F 32.7 °F 96% 30.25 in 10.0 mi NNE 4.6 mph - N/A   Clear
12:35 AM 33.4 °F 29.1 °F 32.4 °F 96% 30.24 in 10.0 mi NE 4.6 mph - N/A   Clear
12:55 AM 32.4 °F 29.1 °F 32.2 °F 99% 30.25 in 10.0 mi North 3.5 mph - N/A   Clear
1:15 AM 32.4 °F - 32.5 °F 100% 30.25 in 10.0 mi Calm Calm - N/A   Clear
1:35 AM 32.2 °F 27.7 °F 32.4 °F 100% 30.26 in 10.0 mi North 4.6 mph - N/A   Clear
1:55 AM 31.6 °F 27.0 °F 31.8 °F 100% 30.26 in 10.0 mi NNE 4.6 mph - N/A   Clear
2:15 AM 31.5 °F 26.8 °F 31.6 °F 100% 30.25 in 10.0 mi NNE 4.6 mph - N/A   Clear
2:35 AM 30.7 °F 26.0 °F 30.9 °F 100% 30.25 in 10.0 mi NE 4.6 mph - N/A   Clear
2:55 AM 31.3 °F 26.6 °F 31.3 °F 100% 30.25 in 10.0 mi NE 4.6 mph - N/A   Clear
3:15 AM - - - N/A% 30.24 in 10.0 mi Calm Calm - N/A   Clear
3:35 AM 31.1 °F - 31.1 °F 100% 30.25 in 10.0 mi Calm Calm - N/A   Clear
3:55 AM 30.4 °F 26.9 °F 30.4 °F 100% 30.24 in 10.0 mi NNE 3.5 mph - N/A   Clear
4:15 AM 30.2 °F 26.7 °F 30.2 °F 100% 30.23 in 10.0 mi NE 3.5 mph - N/A   Clear
4:35 AM 30.2 °F - 30.2 °F 100% 30.22 in 10.0 mi Calm Calm - N/A   Clear
4:55 AM 30.2 °F - 30.2 °F 100% 30.22 in 7.0 mi Calm Calm - N/A   Clear
5:15 AM 29.7 °F - 29.7 °F 100% 30.22 in 7.0 mi Calm Calm - N/A   Clear
5:35 AM - - - N/A% 30.24 in 7.0 mi Calm Calm - N/A   Clear
5:55 AM 26.6 °F - 26.6 °F 100% 30.25 in 5.0 mi Calm Calm - N/A   Clear
6:15 AM 25.5 °F - 25.5 °F 100% 30.26 in 5.0 mi Calm Calm - N/A   Clear
6:35 AM 27.5 °F 23.6 °F - N/A% 30.26 in 5.0 mi North 3.5 mph - N/A   Haze
6:55 AM 27.5 °F 23.6 °F - N/A% 30.26 in 7.0 mi North 3.5 mph - N/A   Clear
7:15 AM 27.7 °F 22.4 °F 28.0 °F 100% 30.25 in 7.0 mi North 4.6 mph - N/A   Clear
7:35 AM 28.6 °F 24.8 °F 28.6 °F 100% 30.25 in 5.0 mi North 3.5 mph - N/A   Clear
7:55 AM 29.1 °F - 29.1 °F 100% 30.25 in 5.0 mi Calm Calm - N/A   Clear
8:15 AM 28.0 °F 24.2 °F 28.4 °F 100% 30.26 in 5.0 mi NNW 3.5 mph - N/A   Clear
8:35 AM 30.2 °F 26.7 °F 30.2 °F 100% 30.25 in 7.0 mi North 3.5 mph - N/A   Clear
8:55 AM - - - N/A% 30.26 in 7.0 mi NNE 4.6 mph - N/A   Clear
9:15 AM 33.4 °F 30.4 °F 33.6 °F 100% 30.26 in 10.0 mi NE 3.5 mph - N/A   Clear
9:35 AM 35.1 °F - 34.7 °F 99% 30.27 in 10.0 mi Calm Calm - N/A   Clear
10:15 AM 38.5 °F 34.1 °F 34.5 °F 86% 30.26 in 10.0 mi North 5.8 mph - N/A   Clear
10:35 AM 40.1 °F 35.3 °F 34.0 °F 79% 30.25 in 10.0 mi NNE 6.9 mph - N/A   Clear
10:55 AM 41.4 °F 37.6 °F 33.1 °F 72% 30.25 in 10.0 mi North 5.8 mph - N/A   Clear
11:15 AM 42.4 °F 38.8 °F 32.2 °F 67% 30.24 in 10.0 mi NNE 5.8 mph - N/A   Clear
11:35 AM 43.5 °F 40.9 °F 31.5 °F 63% 30.24 in 10.0 mi NNE 4.6 mph - N/A   Clear
11:55 AM 45.3 °F 41.6 °F 31.6 °F 59% 30.22 in 10.0 mi NE 6.9 mph - N/A   Clear
12:15 PM 46.9 °F - 31.6 °F 55% 30.20 in 10.0 mi NNE 6.9 mph - N/A   Clear
12:35 PM 47.7 °F - 31.8 °F 54% 30.19 in 10.0 mi NNE 3.5 mph - N/A   Clear
12:55 PM 48.7 °F - 31.5 °F 51% 30.19 in 10.0 mi NNW 4.6 mph - N/A   Clear
1:15 PM 49.5 °F - 31.6 °F 50% 30.19 in 10.0 mi Calm Calm - N/A   Clear
1:35 PM 50.0 °F - 31.1 °F 48% 30.18 in 10.0 mi Calm Calm - N/A   Clear
2:35 PM 50.0 °F - 28.0 °F 43% 30.17 in 10.0 mi ESE 3.5 mph - N/A   Clear
2:55 PM 50.0 °F - 28.6 °F 44% 30.17 in 10.0 mi West 3.5 mph - N/A   Clear
3:15 PM 50.0 °F - 28.4 °F 43% 30.16 in 10.0 mi North 3.5 mph - N/A   Clear
3:35 PM 50.0 °F - 28.0 °F 43% 30.16 in 10.0 mi NNW 5.8 mph - N/A   Clear
3:55 PM 50.0 °F - 28.2 °F 43% 30.16 in 10.0 mi Calm Calm - N/A   Clear
4:15 PM 50.0 °F - 29.1 °F 45% 30.17 in 10.0 mi Calm Calm - N/A   Clear
4:35 PM 50.0 °F - 29.5 °F 45% 30.17 in 10.0 mi Calm Calm - N/A   Clear
4:55 PM 50.0 °F - 29.5 °F 45% 30.17 in 10.0 mi Calm Calm - N/A   Clear
5:15 PM 48.6 °F - 29.7 °F 48% 30.17 in 10.0 mi Calm Calm - N/A   Clear
5:35 PM 43.7 °F - 28.8 °F 56% 30.17 in 10.0 mi Calm Calm - N/A   Clear
5:55 PM 41.5 °F - 28.6 °F 60% 30.17 in 10.0 mi Calm Calm - N/A   Clear
6:15 PM 40.3 °F - 29.3 °F 65% 30.18 in 10.0 mi Calm Calm - N/A   Clear
6:35 PM 38.5 °F - 28.2 °F 67% 30.17 in 10.0 mi Calm Calm - N/A   Clear
6:55 PM 36.0 °F - 28.4 °F 74% 30.17 in 10.0 mi Calm Calm - N/A   Clear
7:15 PM 34.9 °F - 29.1 °F 79% 30.16 in 10.0 mi Calm Calm - N/A   Clear
7:35 PM 34.3 °F - 28.9 °F 81% 30.16 in 10.0 mi Calm Calm - N/A   Clear
7:55 PM 32.5 °F - 28.2 °F 84% 30.14 in 10.0 mi Calm Calm - N/A   Clear
8:15 PM 31.6 °F - 27.7 °F 85% 30.14 in 10.0 mi Calm Calm - N/A   Clear
8:35 PM 31.8 °F - 27.7 °F 85% 30.13 in 10.0 mi Calm Calm - N/A   Clear
8:55 PM 31.5 °F - 27.5 °F 85% 30.13 in 10.0 mi Calm Calm - N/A   Clear
9:15 PM 30.9 °F - 27.3 °F 86% 30.13 in 10.0 mi Calm Calm - N/A   Clear
9:35 PM 30.4 °F - 26.4 °F 85% 30.13 in 10.0 mi Calm Calm - N/A   Clear
9:55 PM 30.2 °F - 27.3 °F 89% 30.14 in 10.0 mi Calm Calm - N/A   Clear
10:15 PM 31.1 °F - 27.0 °F 85% 30.14 in 10.0 mi Calm Calm - N/A   Clear
10:35 PM 30.6 °F - 27.3 °F 88% 30.14 in 10.0 mi Calm Calm - N/A   Clear
10:55 PM 30.2 °F - 28.8 °F 94% 30.14 in 10.0 mi Calm Calm - N/A   Clear
11:15 PM 29.5 °F - 28.0 °F 94% 30.13 in 10.0 mi Calm Calm - N/A   Clear
11:35 PM 30.2 °F - 28.9 °F 95% 30.13 in 10.0 mi Calm Calm - N/A   Clear
11:55 PM 29.7 °F - 27.5 °F 92% 30.13 in 10.0 mi Calm Calm - N/A   Clear